createdAt,value
2018-12-11T00:00:33.000Z,353
2018-12-11T00:05:46.000Z,354
2018-12-11T00:10:59.000Z,355
2018-12-11T00:16:12.000Z,356
2018-12-11T00:21:25.000Z,355
2018-12-11T00:26:38.000Z,354
2018-12-11T00:31:51.000Z,354
2018-12-11T00:37:04.000Z,355
2018-12-11T00:42:17.000Z,356
2018-12-11T00:47:30.000Z,354
2018-12-11T00:52:43.000Z,356
2018-12-11T00:57:56.000Z,355
2018-12-11T01:03:09.000Z,353
2018-12-11T01:08:22.000Z,353
2018-12-11T01:13:35.000Z,353
2018-12-11T01:18:48.000Z,353
2018-12-11T01:24:01.000Z,355
2018-12-11T01:29:14.000Z,356
2018-12-11T01:34:27.000Z,355
2018-12-11T01:39:40.000Z,355
2018-12-11T01:44:53.000Z,355
2018-12-11T01:50:06.000Z,356
2018-12-11T01:55:19.000Z,356
2018-12-11T02:00:32.000Z,357
2018-12-11T02:05:45.000Z,358
2018-12-11T02:10:58.000Z,358
2018-12-11T02:16:11.000Z,360
2018-12-11T02:21:23.000Z,361
2018-12-11T02:26:36.000Z,362
2018-12-11T02:31:49.000Z,363
2018-12-11T02:37:02.000Z,363
2018-12-11T02:42:15.000Z,363
2018-12-11T02:47:28.000Z,363
2018-12-11T02:52:41.000Z,362
2018-12-11T02:57:54.000Z,363
2018-12-11T03:03:07.000Z,363
2018-12-11T03:08:20.000Z,363
2018-12-11T03:13:33.000Z,365
2018-12-11T03:18:46.000Z,365
2018-12-11T03:23:59.000Z,365
2018-12-11T03:29:12.000Z,365
2018-12-11T03:34:25.000Z,365
2018-12-11T03:39:38.000Z,365
2018-12-11T03:44:51.000Z,365
2018-12-11T03:50:04.000Z,365
2018-12-11T03:55:17.000Z,366
2018-12-11T04:00:30.000Z,365
2018-12-11T04:05:43.000Z,364
2018-12-11T04:10:56.000Z,364
2018-12-11T04:16:09.000Z,365
2018-12-11T04:21:22.000Z,366
2018-12-11T04:26:35.000Z,368
2018-12-11T04:31:48.000Z,367
2018-12-11T04:37:01.000Z,366
2018-12-11T04:42:14.000Z,368
2018-12-11T04:47:27.000Z,369
2018-12-11T04:52:40.000Z,370
2018-12-11T04:57:53.000Z,371
2018-12-11T05:03:06.000Z,371
2018-12-11T05:08:19.000Z,372
2018-12-11T05:13:32.000Z,373
2018-12-11T05:18:45.000Z,373
2018-12-11T05:23:58.000Z,372
2018-12-11T05:29:11.000Z,371
2018-12-11T05:34:24.000Z,371
2018-12-11T05:39:37.000Z,371
2018-12-11T05:44:50.000Z,371
2018-12-11T05:50:03.000Z,373
2018-12-11T05:55:16.000Z,370
2018-12-11T06:00:28.000Z,370
2018-12-11T06:05:41.000Z,370
2018-12-11T06:10:54.000Z,371
2018-12-11T06:16:07.000Z,371
2018-12-11T06:21:20.000Z,373
2018-12-11T06:26:33.000Z,371
2018-12-11T06:31:46.000Z,371
2018-12-11T06:36:59.000Z,373
2018-12-11T06:42:12.000Z,374
2018-12-11T06:47:25.000Z,376
2018-12-11T06:52:38.000Z,379
2018-12-11T06:57:51.000Z,379
2018-12-11T07:03:04.000Z,379
2018-12-11T07:08:17.000Z,373
2018-12-11T07:13:30.000Z,376
2018-12-11T07:18:43.000Z,378
2018-12-11T07:23:56.000Z,381
2018-12-11T07:29:09.000Z,380
2018-12-11T07:34:22.000Z,381
2018-12-11T07:39:35.000Z,381
2018-12-11T07:44:48.000Z,382
2018-12-11T07:50:01.000Z,387
2018-12-11T07:55:14.000Z,387
2018-12-11T08:00:27.000Z,387
2018-12-11T08:05:40.000Z,386
2018-12-11T08:10:53.000Z,390
2018-12-11T08:16:06.000Z,387
2018-12-11T08:21:19.000Z,382
2018-12-11T08:26:32.000Z,383
2018-12-11T08:36:58.000Z,378
2018-12-11T08:42:11.000Z,379
2018-12-11T08:47:24.000Z,381
2018-12-11T08:52:37.000Z,382
2018-12-11T08:57:50.000Z,381
2018-12-11T09:03:03.000Z,384
2018-12-11T09:08:16.000Z,385
2018-12-11T09:13:29.000Z,390
2018-12-11T09:18:42.000Z,387
2018-12-11T09:23:55.000Z,389
2018-12-11T09:29:08.000Z,391
2018-12-11T09:34:21.000Z,393
2018-12-11T09:39:33.000Z,392
2018-12-11T09:44:46.000Z,392
2018-12-11T09:49:59.000Z,392
2018-12-11T09:55:12.000Z,391
2018-12-11T10:00:25.000Z,395
2018-12-11T10:05:38.000Z,393
2018-12-11T10:10:51.000Z,394
2018-12-11T10:16:04.000Z,390
2018-12-11T10:21:17.000Z,391
2018-12-11T10:26:30.000Z,392
2018-12-11T10:31:43.000Z,391
2018-12-11T10:36:56.000Z,390
2018-12-11T10:42:09.000Z,392
2018-12-11T10:47:22.000Z,393
2018-12-11T10:52:35.000Z,393
2018-12-11T11:03:01.000Z,394
2018-12-11T11:08:14.000Z,393
2018-12-11T11:13:27.000Z,393
2018-12-11T11:18:40.000Z,394
2018-12-11T11:23:53.000Z,394
2018-12-11T11:29:06.000Z,392
2018-12-11T11:34:19.000Z,391
2018-12-11T11:39:32.000Z,390
2018-12-11T11:44:45.000Z,391
2018-12-11T11:49:58.000Z,389
2018-12-11T11:55:11.000Z,392
2018-12-11T12:00:24.000Z,389
2018-12-11T12:05:37.000Z,387
2018-12-11T12:10:50.000Z,387
2018-12-11T12:16:03.000Z,390
2018-12-11T12:21:16.000Z,390
2018-12-11T12:26:29.000Z,390
2018-12-11T12:31:42.000Z,393
2018-12-11T12:36:55.000Z,393
2018-12-11T12:42:08.000Z,395
2018-12-11T12:47:21.000Z,391
2018-12-11T12:52:34.000Z,393
2018-12-11T12:57:47.000Z,392
2018-12-11T13:03:00.000Z,392
2018-12-11T13:08:13.000Z,394
2018-12-11T13:13:25.000Z,394
2018-12-11T13:18:38.000Z,398
2018-12-11T13:29:04.000Z,401
2018-12-11T13:34:17.000Z,400
2018-12-11T13:39:30.000Z,402
2018-12-11T13:44:42.000Z,403
2018-12-11T13:49:55.000Z,404
2018-12-11T13:55:08.000Z,403
2018-12-11T14:00:22.000Z,406
2018-12-11T14:05:35.000Z,403
2018-12-11T14:10:48.000Z,405
2018-12-11T14:16:01.000Z,404
2018-12-11T14:21:14.000Z,404
2018-12-11T14:26:27.000Z,405
2018-12-11T14:31:40.000Z,406
2018-12-11T14:36:53.000Z,403
2018-12-11T14:42:06.000Z,405
2018-12-11T14:47:19.000Z,402
2018-12-11T14:52:32.000Z,405
2018-12-11T14:57:45.000Z,405
2018-12-11T15:02:58.000Z,405
2018-12-11T15:08:11.000Z,405
2018-12-11T15:13:24.000Z,405
2018-12-11T15:23:50.000Z,404
2018-12-11T15:29:03.000Z,404
2018-12-11T15:34:16.000Z,404
2018-12-11T15:39:29.000Z,406
2018-12-11T15:44:42.000Z,406
2018-12-11T15:49:55.000Z,405
2018-12-11T15:55:08.000Z,403
2018-12-11T16:00:21.000Z,405
2018-12-11T16:05:34.000Z,405
2018-12-11T16:10:47.000Z,406
2018-12-11T16:16:00.000Z,407
2018-12-11T16:21:13.000Z,404
2018-12-11T16:26:26.000Z,403
2018-12-11T16:31:39.000Z,401
2018-12-11T16:36:52.000Z,403
2018-12-11T16:47:18.000Z,404
2018-12-11T16:52:30.000Z,405
2018-12-11T16:57:43.000Z,407
2018-12-11T17:02:56.000Z,409
2018-12-11T17:08:09.000Z,408
2018-12-11T17:13:22.000Z,407
2018-12-11T17:18:35.000Z,406
2018-12-11T17:34:14.000Z,408
2018-12-11T17:39:27.000Z,407
2018-12-11T17:44:40.000Z,404
2018-12-11T17:49:53.000Z,407
2018-12-11T17:55:06.000Z,407
2018-12-11T18:00:19.000Z,404
2018-12-11T18:05:32.000Z,406
2018-12-11T18:10:45.000Z,405
2018-12-11T18:15:58.000Z,404
2018-12-11T18:21:11.000Z,403
2018-12-11T18:26:24.000Z,401
2018-12-11T18:31:37.000Z,405
2018-12-11T18:36:50.000Z,403
2018-12-11T18:42:03.000Z,402
2018-12-11T18:47:16.000Z,401
2018-12-11T18:52:29.000Z,400
2018-12-11T18:57:42.000Z,402
2018-12-11T19:02:55.000Z,402
2018-12-11T19:08:08.000Z,404
2018-12-11T19:13:21.000Z,404
2018-12-11T19:18:34.000Z,405
2018-12-11T19:23:47.000Z,407
2018-12-11T19:29:00.000Z,409
2018-12-11T19:34:13.000Z,410
2018-12-11T19:39:26.000Z,409
2018-12-11T19:44:39.000Z,412
2018-12-11T19:49:52.000Z,414
2018-12-11T19:55:05.000Z,413
2018-12-11T20:00:18.000Z,412
2018-12-11T20:05:31.000Z,414
2018-12-11T20:10:44.000Z,411
2018-12-11T20:15:57.034Z,413
2018-12-11T20:21:10.000Z,415
2018-12-11T20:26:22.000Z,415
2018-12-11T20:31:35.000Z,418
2018-12-11T20:36:48.000Z,417
2018-12-11T20:42:01.000Z,415
2018-12-11T20:47:14.000Z,416
2018-12-11T20:52:27.000Z,415
2018-12-11T20:57:40.000Z,418
2018-12-11T21:02:53.000Z,417
2018-12-11T21:08:06.000Z,418
2018-12-11T21:13:19.000Z,419
2018-12-11T21:18:32.000Z,416
2018-12-11T21:23:45.000Z,415
2018-12-11T21:28:58.000Z,413
2018-12-11T21:34:11.000Z,413
2018-12-11T21:39:24.000Z,415
2018-12-11T21:44:37.000Z,412
2018-12-11T21:49:50.000Z,409
2018-12-11T21:55:03.000Z,410
2018-12-11T22:00:16.000Z,410
2018-12-11T22:05:29.000Z,410
2018-12-11T22:10:42.000Z,412
2018-12-11T22:15:55.000Z,412
2018-12-11T22:21:08.000Z,412
2018-12-11T22:26:21.000Z,411
2018-12-11T22:31:34.000Z,408
2018-12-11T22:36:47.000Z,410
2018-12-11T22:42:00.000Z,409
2018-12-11T22:47:13.000Z,410
2018-12-11T22:52:26.000Z,413
2018-12-11T22:57:39.000Z,412
2018-12-11T23:02:52.000Z,412
2018-12-11T23:08:05.000Z,412
2018-12-11T23:13:18.000Z,413
2018-12-11T23:18:31.000Z,415
2018-12-11T23:23:44.000Z,412
2018-12-11T23:28:57.000Z,411
2018-12-11T23:34:10.000Z,411
2018-12-11T23:39:23.000Z,413
2018-12-11T23:44:36.000Z,413
2018-12-11T23:49:49.000Z,413
2018-12-11T23:55:02.000Z,414
